»·PEaware :: N454AH KBLH-KSNA

N454AH :: KBLH-KSNA

FLIGHT INFORMATION

Flight Status: Arrived
Operator: Privately registered:
United States
More flights under this callsign
Pilot: Andrew H. (17317)
Aircraft: PIPER PA-28R-201 ARROW
(P28R)
More flights by this aircraft type
Origin: KBLH Blythe
United States
Destination: KSNA John Wayne-Orange Co
United States
More flights between these airports :: More routes between these airports
Route: +BLH V64 TRM V208 OCN
File this flight plan on PilotEdge
Remarks:
Altitude:
(Current/Filed)
7,500ft
Speed:
(Current/Filed)
130kts
Departed: 20-Mar-18 04:49 PM
Arrived: 20-Mar-18 06:37 PM
Distance/Time
Traveled:
158nm/1:48
Distance/Time
To Go:
Arrived

Flight Plot

Page will automatically refresh every two minutes.

Flight plan parsing failed; only flown route is shown


Map Options




Map Legend


Flown Route
Filed Route
Departure Airport
Arrival Airport
Navaid (VOR, NDB)
Fix

Horizontal Profiles

Position Reports

Time Latitude Longitude Heading Altitude Ground
Speed
20-Mar-18 16:20 33.614456 -114.712300 269 391ft 0kts
20-Mar-18 16:21 33.614456 -114.712300 269 391ft 0kts
20-Mar-18 16:22 33.614456 -114.712300 269 391ft 0kts
20-Mar-18 16:23 33.614456 -114.712300 269 391ft 0kts
20-Mar-18 16:24 33.614456 -114.712300 269 391ft 0kts
20-Mar-18 16:25 33.614456 -114.712300 269 391ft 0kts
20-Mar-18 16:26 33.614456 -114.712300 269 391ft 0kts
20-Mar-18 16:27 33.614456 -114.712300 269 391ft 0kts
20-Mar-18 16:28 33.614456 -114.712300 269 391ft 0kts
20-Mar-18 16:29 33.614456 -114.712300 269 391ft 0kts
20-Mar-18 16:30 33.614456 -114.712300 269 391ft 0kts
20-Mar-18 16:31 33.614456 -114.712300 269 391ft 0kts
20-Mar-18 16:32 33.614456 -114.712300 269 391ft 0kts
20-Mar-18 16:33 33.614456 -114.712300 269 391ft 0kts
20-Mar-18 16:34 33.614456 -114.712300 269 391ft 0kts
20-Mar-18 16:35 33.614456 -114.712300 269 391ft 0kts
20-Mar-18 16:36 33.614456 -114.712300 269 391ft 0kts
20-Mar-18 16:37 33.614456 -114.712300 269 391ft 0kts
20-Mar-18 16:38 33.614456 -114.712300 269 391ft 0kts
20-Mar-18 16:39 33.614456 -114.712300 269 391ft 0kts
20-Mar-18 16:40 33.614456 -114.712300 269 391ft 0kts
20-Mar-18 16:41 33.614706 -114.712925 307 392ft 8kts
20-Mar-18 16:42 33.614973 -114.715824 268 392ft 7kts
20-Mar-18 16:43 33.614975 -114.717964 268 392ft 15kts
20-Mar-18 16:44 33.614972 -114.722662 269 392ft 9kts
20-Mar-18 16:45 33.614977 -114.724817 269 392ft 5kts
20-Mar-18 16:46 33.615323 -114.727688 351 392ft 7kts
20-Mar-18 16:47 33.616466 -114.727372 69 392ft 13kts
20-Mar-18 16:48 33.616208 -114.709405 89 628ft 89kts
20-Mar-18 16:49 33.620734 -114.680730 24 1244ft 96kts
20-Mar-18 16:50 33.639873 -114.695522 268 1534ft 109kts
20-Mar-18 16:51 33.638483 -114.734027 265 1725ft 117kts
20-Mar-18 16:52 33.632365 -114.769156 243 2219ft 106kts
20-Mar-18 16:53 33.617375 -114.799555 238 2696ft 102kts
20-Mar-18 16:54 33.602166 -114.828705 247 3148ft 103kts
20-Mar-18 16:55 33.603494 -114.862109 279 3606ft 100kts
20-Mar-18 16:56 33.604251 -114.895269 266 4067ft 101kts
20-Mar-18 16:57 33.600489 -114.922797 265 4446ft 100kts
20-Mar-18 16:58 33.595557 -114.955811 262 4884ft 101kts
20-Mar-18 16:59 33.596293 -114.989101 275 5317ft 99kts
20-Mar-18 17:00 33.599020 -115.022026 279 5738ft 99kts
20-Mar-18 17:01 33.604477 -115.059952 282 6231ft 97kts
20-Mar-18 17:02 33.607380 -115.086526 277 6608ft 94kts
20-Mar-18 17:03 33.610575 -115.116864 279 7090ft 90kts
20-Mar-18 17:04 33.613124 -115.146003 273 7597ft 85kts
20-Mar-18 17:05 33.613114 -115.174644 275 8037ft 86kts
20-Mar-18 17:06 33.614117 -115.203306 276 8434ft 91kts
20-Mar-18 17:07 33.615875 -115.236621 273 8622ft 103kts
20-Mar-18 17:08 33.615869 -115.274278 267 8587ft 117kts
20-Mar-18 17:09 33.611891 -115.313612 262 8546ft 119kts
20-Mar-18 17:10 33.602991 -115.352427 254 8498ft 119kts
20-Mar-18 17:11 33.593287 -115.390358 256 8494ft 118kts
20-Mar-18 17:12 33.585187 -115.428663 261 8489ft 118kts
20-Mar-18 17:13 33.580458 -115.467849 264 8460ft 120kts
20-Mar-18 17:14 33.582112 -115.507933 271 8460ft 120kts
20-Mar-18 17:15 33.585521 -115.547885 271 8459ft 120kts
20-Mar-18 17:16 33.588895 -115.587530 271 8459ft 120kts
20-Mar-18 17:17 33.592277 -115.627374 271 8459ft 120kts
20-Mar-18 17:18 33.595564 -115.666462 271 8460ft 121kts
20-Mar-18 17:19 33.598946 -115.706948 271 8460ft 122kts
20-Mar-18 17:20 33.602322 -115.747320 271 8460ft 122kts
20-Mar-18 17:21 33.605717 -115.787923 271 8460ft 122kts
20-Mar-18 17:22 33.609101 -115.828295 271 8460ft 122kts
20-Mar-18 17:23 33.612482 -115.868758 271 8459ft 122kts
20-Mar-18 17:24 33.615893 -115.909249 271 8459ft 122kts
20-Mar-18 17:25 33.619310 -115.949573 271 8469ft 121kts
20-Mar-18 17:26 33.622724 -115.989985 271 8468ft 122kts
20-Mar-18 17:27 33.617606 -116.026127 204 8470ft 116kts
20-Mar-18 17:28 33.587067 -116.039559 201 8468ft 117kts
20-Mar-18 17:29 33.556230 -116.052893 201 8468ft 117kts
20-Mar-18 17:30 33.525556 -116.066152 201 8468ft 117kts
20-Mar-18 17:31 33.494854 -116.079417 201 8468ft 117kts
20-Mar-18 17:32 33.464065 -116.092710 201 8468ft 117kts
20-Mar-18 17:33 33.433965 -116.105700 201 8468ft 117kts
20-Mar-18 17:34 33.403267 -116.118943 201 8468ft 117kts
20-Mar-18 17:35 33.372798 -116.132529 206 8467ft 117kts
20-Mar-18 17:36 33.343725 -116.149751 215 8467ft 117kts
20-Mar-18 17:37 33.317447 -116.172744 216 8467ft 117kts
20-Mar-18 17:38 33.292839 -116.197398 231 8467ft 117kts
20-Mar-18 17:39 33.273195 -116.228221 231 8468ft 117kts
20-Mar-18 17:40 33.253439 -116.259080 231 8471ft 116kts
20-Mar-18 17:41 33.233616 -116.289676 231 8477ft 116kts
20-Mar-18 17:42 33.213616 -116.319993 231 8486ft 116kts
20-Mar-18 17:43 33.188127 -116.342471 207 8497ft 117kts
20-Mar-18 17:44 33.159275 -116.360295 230 8510ft 116kts
20-Mar-18 17:45 33.138064 -116.389506 231 8527ft 116kts
20-Mar-18 17:46 33.118063 -116.419668 250 8540ft 116kts
20-Mar-18 17:47 33.106856 -116.455849 251 8540ft 116kts
20-Mar-18 17:48 33.095638 -116.492158 251 8540ft 116kts
20-Mar-18 17:49 33.086923 -116.529394 271 8494ft 117kts
20-Mar-18 17:50 33.087894 -116.567786 271 8494ft 115kts
20-Mar-18 17:51 33.091120 -116.606017 281 8494ft 116kts
20-Mar-18 17:52 33.098274 -116.643533 281 8494ft 116kts
20-Mar-18 17:53 33.105425 -116.680887 281 8497ft 116kts
20-Mar-18 17:54 33.113628 -116.717742 286 8496ft 117kts
20-Mar-18 17:55 33.123916 -116.754721 286 8496ft 117kts
20-Mar-18 17:56 33.134197 -116.791648 286 8496ft 117kts
20-Mar-18 17:57 33.144525 -116.828720 286 8496ft 117kts
20-Mar-18 17:58 33.154844 -116.865740 286 8491ft 117kts
20-Mar-18 17:59 33.165210 -116.902742 286 8490ft 117kts
20-Mar-18 18:00 33.175771 -116.939424 286 8489ft 116kts
20-Mar-18 18:01 33.186549 -116.975652 286 8487ft 115kts
20-Mar-18 18:02 33.196897 -117.011690 275 8486ft 113kts
20-Mar-18 18:03 33.200912 -117.048647 274 8484ft 112kts
20-Mar-18 18:04 33.205218 -117.085821 274 8344ft 119kts
20-Mar-18 18:05 33.209316 -117.126566 273 7891ft 126kts
20-Mar-18 18:06 33.213466 -117.168187 273 7434ft 127kts
20-Mar-18 18:07 33.217673 -117.210095 273 6976ft 128kts
20-Mar-18 18:08 33.221010 -117.251499 254 6521ft 127kts
20-Mar-18 18:09 33.195851 -117.280270 231 6062ft 128kts
20-Mar-18 18:10 33.178136 -117.316106 266 5597ft 129kts
20-Mar-18 18:11 33.180470 -117.359041 271 5138ft 130kts
20-Mar-18 18:12 33.190312 -117.399582 311 4669ft 136kts
20-Mar-18 18:13 33.216780 -117.430103 311 4417ft 128kts
20-Mar-18 18:14 33.243382 -117.462025 311 3811ft 138kts
20-Mar-18 18:15 33.270587 -117.494741 312 3205ft 139kts
20-Mar-18 18:16 33.297700 -117.527716 312 2596ft 138kts
20-Mar-18 18:17 33.322807 -117.558862 312 2490ft 119kts
20-Mar-18 18:18 33.345602 -117.587494 312 2486ft 119kts
20-Mar-18 18:19 33.368148 -117.616315 312 2487ft 118kts
20-Mar-18 18:20 33.390839 -117.645088 312 2486ft 119kts
20-Mar-18 18:21 33.415312 -117.671499 333 2486ft 122kts
20-Mar-18 18:22 33.447074 -117.686903 334 2485ft 124kts
20-Mar-18 18:23 33.479893 -117.700695 343 2483ft 127kts
20-Mar-18 18:24 33.514899 -117.707966 347 2482ft 129kts
20-Mar-18 18:25 33.544952 -117.727427 315 2481ft 126kts
20-Mar-18 18:26 33.571136 -117.755286 315 2478ft 118kts
20-Mar-18 18:27 33.593033 -117.778384 315 2478ft 97kts
20-Mar-18 18:28 33.612226 -117.798706 317 2294ft 91kts
20-Mar-18 18:29 33.629844 -117.818702 309 1824ft 84kts
20-Mar-18 18:30 33.646051 -117.838157 314 1183ft 80kts
20-Mar-18 18:31 33.666386 -117.844633 26 883ft 82kts
20-Mar-18 18:32 33.685209 -117.828909 40 917ft 83kts
20-Mar-18 18:33 33.700989 -117.834647 301 724ft 69kts
20-Mar-18 18:34 33.697251 -117.854262 225 623ft 67kts
20-Mar-18 18:35 33.682353 -117.864581 210 107ft 58kts
20-Mar-18 18:36 33.675902 -117.869585 298 58ft 0kts
20-Mar-18 18:37 33.674889 -117.871479 309 58ft 7kts
20-Mar-18 18:38 33.674051 -117.872100 115 58ft 0kts
20-Mar-18 18:39 33.674051 -117.872100 115 58ft 0kts
20-Mar-18 18:40 33.674051 -117.872100 115 58ft 0kts
20-Mar-18 18:41 33.674051 -117.872100 115 58ft 0kts
20-Mar-18 18:42 33.674051 -117.872100 115 58ft 0kts
20-Mar-18 18:43 33.674051 -117.872100 115 58ft 0kts
20-Mar-18 18:44 33.674051 -117.872100 115 58ft 0kts
20-Mar-18 18:45 33.674051 -117.872100 115 58ft 0kts
20-Mar-18 18:46 33.674051 -117.872100 115 58ft 0kts
20-Mar-18 18:47 33.674051 -117.872100 115 58ft 0kts
20-Mar-18 18:48 33.674051 -117.872100 115 58ft 0kts
20-Mar-18 18:49 33.674051 -117.872100 115 58ft 0kts
20-Mar-18 18:50 33.674051 -117.872100 115 58ft 0kts
20-Mar-18 18:51 33.674051 -117.872100 115 58ft 0kts

Navigation Log

Ident Type
Flight plan parsing failed, navigation log unavailable